Time;durP1;ratioP1;P1;durP2;ratioP2;P2;SDS_P1;SDS_P2;PMS_P1;PMS_P2;Temp;Humidity;BMP_temperature;BMP_pressure;BME280_temperature;BME280_humidity;BME280_pressure;Samples;Min_cycle;Max_cycle;Signal;HPM_P1;HPM_P2
2022/04/09 00:01:59;;;;;;;4.88;1.50;;;0.70;60.50;;;;;;7357625;19;20006;-61
2022/04/09 00:04:29;;;;;;;4.43;1.70;;;0.70;60.40;;;;;;7385595;19;20007;-62
2022/04/09 00:06:59;;;;;;;2.78;1.92;;;0.70;60.60;;;;;;7365580;19;20014;-61
2022/04/09 00:09:34;;;;;;;2.30;1.60;;;0.70;60.60;;;;;;7364858;19;20007;-60
2022/04/09 00:12:04;;;;;;;1.90;1.60;;;0.80;60.90;;;;;;7356544;19;20027;-62
2022/04/09 00:14:34;;;;;;;1.75;1.60;;;0.80;61.00;;;;;;7363704;19;20410;-62
2022/04/09 00:17:04;;;;;;;1.70;1.50;;;0.80;61.10;;;;;;7363611;19;20021;-61
2022/04/09 00:19:34;;;;;;;2.45;1.60;;;0.80;61.40;;;;;;7387079;19;20029;-61
2022/04/09 00:22:04;;;;;;;2.65;1.88;;;0.80;61.50;;;;;;7356766;19;20010;-61
2022/04/09 00:24:36;;;;;;;3.53;2.33;;;0.90;61.50;;;;;;7363186;19;20021;-60
2022/04/09 00:27:06;;;;;;;2.05;1.65;;;0.90;61.70;;;;;;7363793;19;20098;-61
2022/04/09 00:29:36;;;;;;;1.33;1.05;;;0.90;61.90;;;;;;7363466;19;20018;-61
2022/04/09 00:32:07;;;;;;;1.75;1.10;;;0.90;62.00;;;;;;7355916;19;20038;-60
2022/04/09 00:34:37;;;;;;;1.23;0.90;;;1.00;62.30;;;;;;7365719;19;20010;-61
2022/04/09 00:37:07;;;;;;;1.35;0.98;;;1.00;62.60;;;;;;7384840;19;20018;-60
2022/04/09 00:39:39;;;;;;;0.90;0.77;;;1.00;62.70;;;;;;7362656;19;20030;-60
2022/04/09 00:42:16;;;;;;;1.70;0.90;;;1.00;62.70;;;;;;7356003;19;20049;-60
2022/04/09 00:44:45;;;;;;;1.55;1.17;;;1.00;62.70;;;;;;7363237;19;20019;-60
2022/04/09 00:47:15;;;;;;;1.85;1.30;;;1.00;62.70;;;;;;7363853;19;20010;-59
2022/04/09 00:49:46;;;;;;;3.55;1.63;;;1.00;62.80;;;;;;7363460;19;20788;-61
2022/04/09 00:52:17;;;;;;;2.53;1.65;;;0.90;62.60;;;;;;7377497;19;20470;-61
2022/04/09 00:54:52;;;;;;;2.00;1.42;;;1.00;62.70;;;;;;7361062;19;20091;-59
2022/04/09 00:57:25;;;;;;;3.13;2.22;;;1.00;62.70;;;;;;7361804;19;20020;-60
2022/04/09 00:59:57;;;;;;;3.80;2.05;;;1.00;62.70;;;;;;7360404;19;20016;-60
2022/04/09 01:02:27;;;;;;;2.50;2.03;;;0.90;62.60;;;;;;7358160;19;20085;-59
2022/04/09 01:04:58;;;;;;;2.58;1.98;;;1.00;62.70;;;;;;7360765;19;20003;-60
2022/04/09 01:07:32;;;;;;;3.20;2.22;;;1.00;62.70;;;;;;7384862;19;20462;-61
2022/04/09 01:10:04;;;;;;;4.10;1.92;;;1.00;62.70;;;;;;7360434;19;20011;-59
2022/04/09 01:12:36;;;;;;;3.30;2.08;;;1.10;62.80;;;;;;7355121;19;20011;-60
2022/04/09 01:15:08;;;;;;;4.47;2.58;;;1.10;62.80;;;;;;7362236;19;20010;-60
2022/04/09 01:17:39;;;;;;;4.10;2.38;;;1.10;62.70;;;;;;7362841;19;20086;-60
2022/04/09 01:20:19;;;;;;;3.90;3.13;;;1.00;62.40;;;;;;7359805;19;20020;-60
2022/04/09 01:22:52;;;;;;;4.80;3.67;;;1.10;62.50;;;;;;7359403;19;20490;-60
2022/04/09 01:25:22;;;;;;;7.50;4.53;;;1.10;62.30;;;;;;7383818;19;20015;-61
2022/04/09 01:27:53;;;;;;;6.28;3.67;;;1.10;62.30;;;;;;7362435;19;20407;-60
2022/04/09 01:30:23;;;;;;;6.45;4.38;;;1.10;62.20;;;;;;7358350;19;20170;-60
2022/04/09 01:32:53;;;;;;;6.38;4.38;;;1.10;61.20;;;;;;7358350;19;20010;-60
2022/04/09 01:35:23;;;;;;;6.97;4.72;;;1.10;61.30;;;;;;7361732;19;20014;-60
2022/04/09 01:37:55;;;;;;;7.03;4.90;;;1.10;60.90;;;;;;7362714;19;20010;-60
2022/04/09 01:40:25;;;;;;;6.95;4.85;;;1.10;61.00;;;;;;7379683;19;20070;-60
2022/04/09 01:42:55;;;;;;;6.13;4.22;;;1.10;61.10;;;;;;7357940;19;20475;-60
2022/04/09 01:45:27;;;;;;;6.30;4.22;;;1.10;60.60;;;;;;7362399;19;20014;-60
2022/04/09 01:47:58;;;;;;;4.43;3.30;;;1.20;60.70;;;;;;7362990;19;20010;-60
2022/04/09 01:50:29;;;;;;;5.07;3.53;;;1.10;60.00;;;;;;7362848;19;20530;-60
2022/04/09 01:53:02;;;;;;;4.60;3.38;;;1.20;60.20;;;;;;7364860;19;20026;-60
2022/04/09 01:55:32;;;;;;;5.20;3.78;;;1.20;60.40;;;;;;7388692;19;20022;-60
2022/04/09 01:58:03;;;;;;;6.18;3.75;;;1.20;58.90;;;;;;7369241;19;20529;-60
2022/04/09 02:00:33;;;;;;;7.78;4.38;;;1.20;59.40;;;;;;7364271;19;20011;-60
2022/04/09 02:03:03;;;;;;;5.15;3.85;;;1.20;59.30;;;;;;7366116;19;20407;-60
2022/04/09 02:05:34;;;;;;;4.57;3.17;;;1.20;58.90;;;;;;7366585;19;20010;-60
2022/04/09 02:08:08;;;;;;;5.72;3.50;;;1.20;59.00;;;;;;7368545;19;20014;-60
2022/04/09 02:10:38;;;;;;;6.07;4.20;;;1.30;59.10;;;;;;7363804;19;20018;-60
2022/04/09 02:13:14;;;;;;;6.25;3.90;;;1.30;59.10;;;;;;7384936;19;20142;-60
2022/04/09 02:15:44;;;;;;;6.35;3.80;;;1.30;58.30;;;;;;7367772;19;20122;-61
2022/04/09 02:18:14;;;;;;;6.40;4.28;;;1.30;58.10;;;;;;7368652;19;20018;-60
2022/04/09 02:20:44;;;;;;;7.53;3.63;;;1.30;58.70;;;;;;7364161;19;20010;-60
2022/04/09 02:23:16;;;;;;;6.53;4.30;;;1.30;58.20;;;;;;7364399;19;20355;-60
2022/04/09 02:25:46;;;;;;;11.32;4.63;;;1.20;58.30;;;;;;7365480;19;20015;-60
2022/04/09 02:28:16;;;;;;;8.60;4.63;;;1.30;58.80;;;;;;7387484;19;20490;-60
2022/04/09 02:30:46;;;;;;;8.00;5.00;;;1.30;58.70;;;;;;7361733;19;20188;-60
2022/04/09 02:33:15;;;;;;;7.43;4.68;;;1.40;58.70;;;;;;7364502;19;20360;-60
2022/04/09 02:35:45;;;;;;;7.75;4.72;;;1.30;58.00;;;;;;7365924;19;20010;-60
2022/04/09 02:38:18;;;;;;;9.23;5.35;;;1.30;58.00;;;;;;7368470;19;20022;-60
2022/04/09 02:40:47;;;;;;;9.20;5.20;;;1.30;58.80;;;;;;7361332;19;20011;-60
2022/04/09 02:43:17;;;;;;;9.05;5.53;;;1.30;58.60;;;;;;7386754;19;20012;-61
2022/04/09 02:45:47;;;;;;;15.00;6.57;;;1.40;58.90;;;;;;7367115;19;20014;-61
2022/04/09 02:48:18;;;;;;;11.60;6.55;;;1.30;58.80;;;;;;7368637;19;20014;-61
2022/04/09 02:50:48;;;;;;;13.32;7.18;;;1.30;58.80;;;;;;7362516;19;20011;-61
2022/04/09 02:53:20;;;;;;;12.23;7.32;;;1.40;59.00;;;;;;7363880;19;20481;-61
2022/04/09 02:55:50;;;;;;;11.88;6.68;;;1.40;58.50;;;;;;7363837;19;20712;-61
2022/04/09 02:58:20;;;;;;;13.35;7.35;;;1.40;58.30;;;;;;7389404;19;20018;-60
2022/04/09 03:00:50;;;;;;;10.85;7.32;;;1.50;59.10;;;;;;7361239;19;20020;-60
2022/04/09 03:03:20;;;;;;;11.10;7.28;;;1.50;58.90;;;;;;7366316;19;20010;-60
2022/04/09 03:05:50;;;;;;;11.02;6.68;;;1.50;58.50;;;;;;7364762;19;20042;-60
2022/04/09 03:08:23;;;;;;;12.95;6.38;;;1.60;59.00;;;;;;7367034;19;20455;-60
2022/04/09 03:10:53;;;;;;;9.55;6.00;;;1.50;58.10;;;;;;7365112;19;20014;-60
2022/04/09 03:13:23;;;;;;;9.43;6.05;;;1.50;57.90;;;;;;7384003;19;20014;-61
2022/04/09 03:15:53;;;;;;;11.20;6.32;;;1.50;57.70;;;;;;7365485;19;20394;-61
2022/04/09 03:18:23;;;;;;;9.73;6.72;;;1.60;58.10;;;;;;7367189;19;20017;-61
2022/04/09 03:20:53;;;;;;;10.10;5.93;;;1.60;57.70;;;;;;7362280;19;20352;-61
2022/04/09 03:23:25;;;;;;;8.45;5.55;;;1.60;56.90;;;;;;7362928;19;20009;-60
2022/04/09 03:25:55;;;;;;;8.25;5.60;;;1.60;57.00;;;;;;7364157;19;20022;-60
2022/04/09 03:28:26;;;;;;;10.98;6.65;;;1.60;55.90;;;;;;7388660;19;20018;-61
2022/04/09 03:30:56;;;;;;;11.43;6.85;;;1.70;56.30;;;;;;7361367;19;20007;-61
2022/04/09 03:33:26;;;;;;;9.02;6.35;;;1.70;55.90;;;;;;7361209;19;20055;-60
2022/04/09 03:35:56;;;;;;;8.65;6.57;;;1.70;56.10;;;;;;7365974;19;20327;-61
2022/04/09 03:38:29;;;;;;;10.15;6.13;;;1.70;55.50;;;;;;7366763;19;20010;-61
2022/04/09 03:40:58;;;;;;;9.82;6.45;;;1.70;55.50;;;;;;7362113;19;20407;-61
2022/04/09 03:43:29;;;;;;;7.38;5.40;;;1.70;56.10;;;;;;7382310;19;20779;-61
2022/04/09 03:45:59;;;;;;;10.48;6.72;;;1.80;55.50;;;;;;7365872;19;20477;-61
2022/04/09 03:48:29;;;;;;;9.63;6.93;;;1.80;55.00;;;;;;7365928;19;20010;-61
2022/04/09 03:50:58;;;;;;;11.02;7.20;;;1.80;54.60;;;;;;7360725;19;20653;-61
2022/04/09 03:53:31;;;;;;;16.17;6.10;;;1.80;55.40;;;;;;7360768;19;20029;-61
2022/04/09 03:56:01;;;;;;;11.05;7.13;;;1.80;53.90;;;;;;7364392;19;20017;-60
2022/04/09 03:58:31;;;;;;;10.43;6.05;;;1.90;54.70;;;;;;7385883;19;20085;-60
2022/04/09 04:01:00;;;;;;;9.43;5.90;;;1.80;53.40;;;;;;7361022;19;20011;-60
2022/04/09 04:03:31;;;;;;;11.90;6.95;;;1.80;52.60;;;;;;7360607;19;20366;-60
2022/04/09 04:06:01;;;;;;;11.90;5.70;;;1.80;53.00;;;;;;7364544;19;20040;-59
2022/04/09 04:08:34;;;;;;;11.13;6.82;;;1.70;52.50;;;;;;7364039;19;20022;-59
2022/04/09 04:11:04;;;;;;;12.43;6.78;;;1.70;53.10;;;;;;7359561;19;20014;-59
2022/04/09 04:13:36;;;;;;;13.38;7.18;;;1.70;53.50;;;;;;7380659;19;20024;-59
2022/04/09 04:16:07;;;;;;;12.80;6.97;;;1.70;53.80;;;;;;7356593;19;20017;-59
2022/04/09 04:18:37;;;;;;;14.23;7.22;;;1.70;53.80;;;;;;7354785;19;20046;-60
2022/04/09 04:21:07;;;;;;;13.63;8.02;;;1.70;54.30;;;;;;7352215;19;20021;-60
2022/04/09 04:23:39;;;;;;;15.43;8.23;;;1.70;53.90;;;;;;7360338;19;20015;-59
2022/04/09 04:26:09;;;;;;;12.30;7.93;;;1.70;53.90;;;;;;7364867;19;20006;-59
2022/04/09 04:28:39;;;;;;;16.42;9.35;;;1.70;53.50;;;;;;7365447;19;20010;-60
2022/04/09 04:31:09;;;;;;;15.40;8.25;;;1.70;53.50;;;;;;7381964;19;20105;-59
2022/04/09 04:33:39;;;;;;;15.63;9.20;;;1.70;53.20;;;;;;7358262;19;20018;-60
2022/04/09 04:36:09;;;;;;;19.25;9.65;;;1.60;53.20;;;;;;7364627;19;20507;-60
2022/04/09 04:38:41;;;;;;;18.25;8.45;;;1.70;53.10;;;;;;7364240;19;20348;-61
2022/04/09 04:41:12;;;;;;;15.48;9.15;;;1.60;53.40;;;;;;7358813;19;20013;-61
2022/04/09 04:43:43;;;;;;;15.60;9.73;;;1.60;53.40;;;;;;7360452;19;20014;-60
2022/04/09 04:46:13;;;;;;;21.25;9.80;;;1.60;53.50;;;;;;7384927;19;20416;-60
2022/04/09 04:48:43;;;;;;;21.23;10.70;;;1.60;53.50;;;;;;7363377;19;20094;-60
2022/04/09 04:51:13;;;;;;;19.55;10.30;;;1.50;53.70;;;;;;7358322;19;20021;-60
2022/04/09 04:53:45;;;;;;;17.45;9.10;;;1.50;53.70;;;;;;7359240;19;20014;-60
2022/04/09 04:56:15;;;;;;;19.73;9.93;;;1.60;54.00;;;;;;7364410;19;20420;-60
2022/04/09 04:58:45;;;;;;;21.30;10.88;;;1.60;53.90;;;;;;7364583;19;20023;-60
2022/04/09 05:01:15;;;;;;;17.40;10.40;;;1.60;54.00;;;;;;7379613;19;20077;-60
2022/04/09 05:03:45;;;;;;;17.65;10.18;;;1.60;54.10;;;;;;7359168;19;20751;-60
2022/04/09 05:06:15;;;;;;;21.58;11.80;;;1.60;53.90;;;;;;7363352;19;20003;-60
2022/04/09 05:08:47;;;;;;;23.55;12.18;;;1.70;53.60;;;;;;7363395;19;20006;-62
2022/04/09 05:11:17;;;;;;;23.27;13.35;;;1.90;52.60;;;;;;7358647;19;20053;-60
2022/04/09 05:13:47;;;;;;;26.17;13.23;;;2.50;46.90;;;;;;7359308;19;20029;-60
2022/04/09 05:16:18;;;;;;;25.38;12.07;;;3.20;43.30;;;;;;7383145;19;20338;-60
2022/04/09 05:18:48;;;;;;;23.00;12.63;;;3.50;32.40;;;;;;7362245;19;20488;-60
2022/04/09 05:21:18;;;;;;;20.40;11.90;;;3.00;27.60;;;;;;7356403;19;20078;-60
2022/04/09 05:23:50;;;;;;;28.73;12.38;;;3.30;30.90;;;;;;7358786;19;20473;-60
2022/04/09 05:26:20;;;;;;;20.13;13.13;;;3.10;31.00;;;;;;7370099;19;20010;-60
2022/04/09 05:28:53;;;;;;;21.52;12.68;;;3.30;28.00;;;;;;7370729;19;20018;-60
2022/04/09 05:31:27;;;;;;;20.05;12.13;;;3.30;25.30;;;;;;7386388;19;20073;-60
2022/04/09 05:33:57;;;;;;;19.15;11.95;;;3.80;22.30;;;;;;7365150;19;20018;-60
2022/04/09 05:36:27;;;;;;;19.63;11.73;;;3.30;28.10;;;;;;7369040;19;20446;-60
2022/04/09 05:38:59;;;;;;;21.90;12.02;;;2.90;30.50;;;;;;7370188;19;20006;-61
2022/04/09 05:41:29;;;;;;;23.08;12.23;;;2.70;32.60;;;;;;7367234;19;20395;-60
2022/04/09 05:43:59;;;;;;;20.80;12.48;;;2.50;36.30;;;;;;7365410;19;20086;-61
2022/04/09 05:46:29;;;;;;;21.75;12.52;;;2.50;37.50;;;;;;7390505;19;20019;-61
2022/04/09 05:48:59;;;;;;;21.13;12.30;;;2.60;38.80;;;;;;7369417;19;20017;-61
2022/04/09 05:51:29;;;;;;;23.15;13.70;;;2.60;38.70;;;;;;7364580;19;20014;-61
2022/04/09 05:54:02;;;;;;;24.42;13.50;;;2.60;38.20;;;;;;7364616;19;20474;-61
2022/04/09 05:56:32;;;;;;;21.02;13.35;;;2.60;38.10;;;;;;7368695;19;20126;-60
2022/04/09 05:59:02;;;;;;;21.48;13.38;;;2.60;38.50;;;;;;7369218;19;20014;-58
2022/04/09 06:01:49;;;;;;;25.73;13.90;;;2.80;38.80;;;;;;7363304;19;20006;-60
2022/04/09 06:04:20;;;;;;;29.33;14.48;;;2.80;38.20;;;;;;7388113;19;20011;-60
2022/04/09 06:06:50;;;;;;;22.08;14.15;;;2.60;35.00;;;;;;7368666;19;20014;-60
2022/04/09 06:09:23;;;;;;;26.45;13.90;;;2.70;38.60;;;;;;7369438;19;20018;-60
2022/04/09 06:11:53;;;;;;;26.67;13.93;;;2.70;36.20;;;;;;7360142;19;20007;-61
2022/04/09 06:14:23;;;;;;;22.75;13.18;;;2.80;36.60;;;;;;7365717;19;20022;-60
2022/04/09 06:16:53;;;;;;;19.45;12.00;;;2.70;35.50;;;;;;7368859;19;20014;-60
2022/04/09 06:19:23;;;;;;;24.13;13.68;;;2.80;34.80;;;;;;7390256;19;20022;-60
2022/04/09 06:21:53;;;;;;;25.48;14.18;;;2.80;35.60;;;;;;7359736;19;20508;-60
2022/04/09 06:24:26;;;;;;;22.85;12.68;;;3.00;36.90;;;;;;7364955;19;20383;-60
2022/04/09 06:26:56;;;;;;;22.77;12.27;;;2.90;33.00;;;;;;7368949;19;20017;-59
2022/04/09 06:29:26;;;;;;;19.80;12.98;;;3.10;34.10;;;;;;7368189;19;20021;-61
2022/04/09 06:31:56;;;;;;;20.50;12.85;;;3.30;34.70;;;;;;7358742;19;20018;-60
2022/04/09 06:34:26;;;;;;;20.02;12.20;;;3.30;33.40;;;;;;7386072;19;20067;-60
2022/04/09 06:36:56;;;;;;;24.45;13.32;;;3.20;32.70;;;;;;7364687;19;20639;-60
2022/04/09 06:39:28;;;;;;;20.70;12.10;;;3.30;33.40;;;;;;7367589;19;20078;-60
2022/04/09 06:41:58;;;;;;;20.75;11.82;;;3.30;30.80;;;;;;7358973;19;20015;-60
2022/04/09 06:44:28;;;;;;;19.00;11.02;;;3.40;32.50;;;;;;7364637;19;20016;-59
2022/04/09 06:46:59;;;;;;;19.52;10.93;;;3.20;32.40;;;;;;7366712;19;20034;-59
2022/04/09 06:49:29;;;;;;;17.50;11.02;;;3.30;32.40;;;;;;7389022;19;20014;-60
2022/04/09 06:51:59;;;;;;;17.63;10.63;;;3.60;32.70;;;;;;7359267;19;20086;-59
2022/04/09 06:54:32;;;;;;;25.83;12.32;;;3.50;28.00;;;;;;7364316;19;20031;-60
2022/04/09 06:57:01;;;;;;;14.90;9.98;;;3.60;30.10;;;;;;7366434;19;20485;-61
2022/04/09 06:59:31;;;;;;;19.48;9.95;;;3.60;29.10;;;;;;7366896;19;20019;-60
2022/04/09 07:02:01;;;;;;;15.18;10.32;;;3.60;25.50;;;;;;7358423;19;20074;-59
2022/04/09 07:04:32;;;;;;;20.55;10.98;;;3.60;27.20;;;;;;7386454;19;20034;-60
2022/04/09 07:07:02;;;;;;;16.58;9.85;;;3.80;25.80;;;;;;7366657;19;20539;-60
2022/04/09 07:09:35;;;;;;;21.77;10.00;;;3.70;25.60;;;;;;7363728;19;20102;-60
2022/04/09 07:12:06;;;;;;;17.48;9.45;;;3.90;23.40;;;;;;7356644;19;20447;-59
2022/04/09 07:14:36;;;;;;;14.70;10.27;;;3.70;23.60;;;;;;7363984;19;20527;-60
2022/04/09 07:17:07;;;;;;;16.10;9.75;;;3.90;27.60;;;;;;7366305;19;20018;-59
2022/04/09 07:19:38;;;;;;;17.83;10.18;;;3.90;23.90;;;;;;7377362;19;20014;-59
2022/04/09 07:22:08;;;;;;;14.40;9.00;;;4.10;24.20;;;;;;7378830;19;20042;-60
2022/04/09 07:24:40;;;;;;;14.35;8.60;;;4.30;23.60;;;;;;7363116;19;20011;-61
2022/04/09 07:27:10;;;;;;;12.63;8.50;;;4.40;22.70;;;;;;7366286;19;20029;-61
2022/04/09 07:29:40;;;;;;;15.00;8.82;;;4.20;19.10;;;;;;7366419;19;20017;-60
2022/04/09 07:32:11;;;;;;;16.52;9.63;;;4.40;21.50;;;;;;7356926;19;20011;-60
2022/04/09 07:34:43;;;;;;;13.30;9.05;;;4.30;22.60;;;;;;7363754;19;20022;-60
2022/04/09 07:37:13;;;;;;;12.70;8.27;;;4.50;18.90;;;;;;7387019;19;20010;-61
2022/04/09 07:39:45;;;;;;;12.70;8.60;;;4.30;20.70;;;;;;7365066;19;20011;-60
2022/04/09 07:42:15;;;;;;;14.32;9.38;;;4.30;22.60;;;;;;7356349;19;20026;-61
2022/04/09 07:44:45;;;;;;;13.77;8.38;;;4.40;21.10;;;;;;7361960;19;20021;-60
2022/04/09 07:47:15;;;;;;;13.02;7.65;;;4.40;20.90;;;;;;7365618;19;20008;-60
2022/04/09 07:49:46;;;;;;;14.30;9.07;;;4.50;21.30;;;;;;7364602;19;20010;-61
2022/04/09 07:52:16;;;;;;;15.75;8.35;;;4.70;22.90;;;;;;7376854;19;20010;-60
2022/04/09 07:54:49;;;;;;;13.88;8.40;;;4.60;20.10;;;;;;7361060;19;20449;-60
2022/04/09 07:57:19;;;;;;;10.95;7.70;;;4.60;17.30;;;;;;7362718;19;20018;-60
2022/04/09 07:59:48;;;;;;;18.60;8.13;;;4.60;18.00;;;;;;7363559;19;20010;-61
2022/04/09 08:02:18;;;;;;;17.00;7.80;;;4.90;17.90;;;;;;7356651;19;20010;-61
2022/04/09 08:04:48;;;;;;;12.55;7.10;;;4.80;16.00;;;;;;7361713;19;20011;-60
2022/04/09 08:07:18;;;;;;;15.60;8.57;;;4.70;16.90;;;;;;7385076;19;20014;-60
2022/04/09 08:09:51;;;;;;;13.52;8.05;;;5.00;20.50;;;;;;7364327;19;20011;-60
2022/04/09 08:12:21;;;;;;;14.13;8.73;;;4.90;18.90;;;;;;7354727;19;20046;-60
2022/04/09 08:14:51;;;;;;;14.65;8.15;;;4.80;16.00;;;;;;7363175;19;20013;-60
2022/04/09 08:17:21;;;;;;;12.70;7.10;;;4.90;17.70;;;;;;7365009;19;20007;-61
2022/04/09 08:19:51;;;;;;;12.98;6.90;;;5.10;15.70;;;;;;7364573;19;20018;-60
2022/04/09 08:22:21;;;;;;;16.42;6.90;;;4.70;13.10;;;;;;7375422;19;20086;-60
2022/04/09 08:24:53;;;;;;;18.75;7.38;;;5.20;17.90;;;;;;7361057;19;20021;-61
2022/04/09 08:27:23;;;;;;;13.18;7.28;;;5.00;14.80;;;;;;7364035;19;20111;-60
2022/04/09 08:29:53;;;;;;;14.30;7.65;;;5.00;14.00;;;;;;7364231;19;20021;-62
2022/04/09 08:32:25;;;;;;;12.57;6.15;;;5.30;13.80;;;;;;7354960;19;20013;-61
2022/04/09 08:34:55;;;;;;;15.77;7.15;;;4.70;9.90;;;;;;7362366;19;20018;-62
2022/04/09 08:37:25;;;;;;;11.15;6.88;;;5.60;12.90;;;;;;7383437;19;20098;-61
2022/04/09 08:39:58;;;;;;;15.70;7.65;;;5.30;10.70;;;;;;7362757;19;20017;-60
2022/04/09 08:42:28;;;;;;;15.05;6.80;;;5.60;12.90;;;;;;7355989;19;20146;-61
2022/04/09 08:44:58;;;;;;;14.32;6.07;;;6.00;8.80;;;;;;7362190;19;20013;-60
2022/04/09 08:47:28;;;;;;;9.35;6.22;;;5.50;7.90;;;;;;7364227;19;20014;-60
2022/04/09 08:49:59;;;;;;;9.48;6.15;;;5.00;11.00;;;;;;7363556;19;20022;-60
2022/04/09 08:52:31;;;;;;;12.43;6.55;;;4.90;9.00;;;;;;7376074;19;20384;-60
2022/04/09 08:55:04;;;;;;;11.30;6.40;;;5.20;11.80;;;;;;7360368;19;20755;-60
2022/04/09 08:57:34;;;;;;;11.85;6.18;;;5.40;11.70;;;;;;7363109;19;20021;-61
2022/04/09 09:00:07;;;;;;;12.30;6.15;;;5.60;9.40;;;;;;7360455;19;20014;-60
2022/04/09 09:02:38;;;;;;;11.18;6.90;;;5.70;7.40;;;;;;7351916;19;20063;-60
2022/04/09 09:05:09;;;;;;;11.80;6.32;;;5.80;10.40;;;;;;7360327;19;20037;-60
2022/04/09 09:07:47;;;;;;;10.43;6.25;;;6.00;6.40;;;;;;7363057;19;20462;-61
2022/04/09 09:10:21;;;;;;;12.75;6.68;;;5.80;7.00;;;;;;7384596;19;20462;-60
2022/04/09 09:13:00;;;;;;;12.52;6.82;;;5.50;7.60;;;;;;7354442;19;20649;-61
2022/04/09 09:15:30;;;;;;;15.95;6.47;;;5.50;10.80;;;;;;7362365;19;20010;-61
2022/04/09 09:18:00;;;;;;;10.27;5.70;;;6.10;8.30;;;;;;7362576;19;20644;-61
2022/04/09 09:20:30;;;;;;;8.65;5.55;;;5.80;3.80;;;;;;7361023;19;20427;-61
2022/04/09 09:23:00;;;;;;;11.93;6.22;;;5.90;4.90;;;;;;7355021;19;20036;-60
2022/04/09 09:25:33;;;;;;;10.68;6.07;;;6.10;7.80;;;;;;7381750;19;20021;-60
2022/04/09 09:28:03;;;;;;;8.82;5.40;;;6.40;2.50;;;;;;7362408;19;20395;-61
2022/04/09 09:30:50;;;;;;;9.98;5.22;;;6.10;1.20;;;;;;7359988;19;20013;-61
2022/04/09 09:33:20;;;;;;;11.30;4.10;;;6.80;1.90;;;;;;7355932;19;20582;-61
2022/04/09 09:36:10;;;;;;;10.73;4.97;;;6.90;1.00;;;;;;7360328;19;20623;-61
2022/04/09 09:38:40;;;;;;;9.60;5.00;;;7.00;1.50;;;;;;7360433;19;20366;-62
2022/04/09 09:41:25;;;;;;;10.57;4.85;;;7.40;1.00;;;;;;7355698;19;20010;-62
2022/04/09 09:44:05;;;;;;;;;;;6.80;1.00;;;;;;7359147;19;20478;-61
2022/04/09 09:46:35;;;;;;;10.45;4.30;;;6.90;1.00;;;;;;7383515;19;19919;-61
2022/04/09 09:49:05;;;;;;;7.80;4.13;;;7.70;1.00;;;;;;7362203;19;20442;-61
2022/04/09 09:51:36;;;;;;;7.80;3.63;;;7.90;1.00;;;;;;7354341;19;20006;-61
2022/04/09 09:54:07;;;;;;;10.38;4.32;;;7.30;1.00;;;;;;7356147;19;20395;-61
2022/04/09 09:56:42;;;;;;;8.82;4.68;;;6.70;1.00;;;;;;7359022;19;20026;-62
2022/04/09 09:59:14;;;;;;;10.50;4.70;;;7.20;1.00;;;;;;7361353;19;20421;-59
2022/04/09 10:01:47;;;;;;;9.52;4.13;;;7.00;1.00;;;;;;7355509;19;20063;-60
2022/04/09 10:04:17;;;;;;;9.95;4.47;;;6.70;1.00;;;;;;7379510;19;20451;-61
2022/04/09 10:06:47;;;;;;;11.35;4.75;;;6.30;1.00;;;;;;7359397;19;20486;-61
2022/04/09 10:09:19;;;;;;;11.18;4.53;;;6.30;1.00;;;;;;7359855;19;20466;-61
2022/04/09 10:11:54;;;;;;;11.60;5.00;;;6.70;1.00;;;;;;7360944;19;20782;-61
2022/04/09 10:14:25;;;;;;;10.05;4.55;;;7.10;1.00;;;;;;7366433;19;20079;-62
2022/04/09 10:16:58;;;;;;;10.13;4.65;;;6.90;1.00;;;;;;7366729;19;20010;-62
2022/04/09 10:19:28;;;;;;;9.55;4.45;;;6.50;1.00;;;;;;7389364;19;20073;-61
2022/04/09 10:21:58;;;;;;;6.10;4.30;;;7.60;1.00;;;;;;7357722;19;20125;-61
2022/04/09 10:24:29;;;;;;;7.55;3.88;;;7.20;1.00;;;;;;7363933;19;20011;-61
2022/04/09 10:27:04;;;;;;;10.75;4.75;;;7.60;1.00;;;;;;7365316;19;20011;-61
2022/04/09 10:29:49;;;;;;;9.05;4.00;;;7.70;1.00;;;;;;7367359;19;20007;-61
2022/04/09 10:32:43;;;;;;;6.28;3.65;;;7.50;1.00;;;;;;7359189;19;20018;-61
2022/04/09 10:35:30;;;;;;;10.30;3.92;;;7.80;1.00;;;;;;7362277;19;20933;-62
2022/04/09 10:38:18;;;;;;;9.13;3.53;;;7.70;1.00;;;;;;7363464;19;20521;-60
2022/04/09 10:41:27;;;;;;;4.45;3.17;;;7.80;1.00;;;;;;7361299;19;20030;-59
2022/04/09 10:44:03;;;;;;;13.13;4.15;;;7.20;1.00;;;;;;7363136;19;20424;-62
2022/04/09 10:46:43;;;;;;;9.45;3.90;;;6.90;1.00;;;;;;7389090;19;20038;-60
2022/04/09 10:49:28;;;;;;;9.10;3.60;;;7.10;1.00;;;;;;7367414;19;20059;-61
2022/04/09 10:52:06;;;;;;;7.78;3.72;;;7.10;1.00;;;;;;7356210;19;20412;-61
2022/04/09 10:54:36;;;;;;;10.73;4.57;;;6.50;1.00;;;;;;7361634;19;20006;-61
2022/04/09 10:57:10;;;;;;;11.30;4.22;;;7.20;1.00;;;;;;7365135;19;20070;-62
2022/04/09 10:59:42;;;;;;;8.60;4.03;;;7.30;1.00;;;;;;7367832;19;20074;-61
2022/04/09 11:02:15;;;;;;;9.02;4.05;;;7.40;1.00;;;;;;7356401;19;20018;-61
2022/04/09 11:04:47;;;;;;;5.88;3.92;;;7.90;1.00;;;;;;7362985;19;20048;-62
2022/04/09 11:07:19;;;;;;;10.57;4.15;;;7.70;1.00;;;;;;7387662;19;20036;-60
2022/04/09 11:09:55;;;;;;;7.85;4.00;;;7.20;1.00;;;;;;7366249;19;20014;-61
2022/04/09 11:12:28;;;;;;;8.02;4.53;;;6.80;1.00;;;;;;7357943;19;20446;-61
2022/04/09 11:15:02;;;;;;;9.98;4.63;;;7.50;1.00;;;;;;7365223;19;20014;-61
2022/04/09 11:17:33;;;;;;;6.80;3.50;;;7.70;1.00;;;;;;7365338;19;20070;-61
2022/04/09 11:20:06;;;;;;;7.32;3.75;;;7.00;1.00;;;;;;7366400;19;20021;-59
2022/04/09 11:22:38;;;;;;;8.23;3.53;;;7.40;1.00;;;;;;7376777;19;20089;-61
2022/04/09 11:25:11;;;;;;;9.05;3.53;;;7.50;1.00;;;;;;7362316;19;20011;-62
2022/04/09 11:27:40;;;;;;;8.05;3.50;;;7.40;1.00;;;;;;7364006;19;20070;-61
2022/04/09 11:30:13;;;;;;;5.18;3.30;;;7.90;1.00;;;;;;7365491;19;20007;-62
2022/04/09 11:32:44;;;;;;;8.05;3.80;;;7.80;1.00;;;;;;7356218;19;20459;-61
2022/04/09 11:35:16;;;;;;;8.75;3.88;;;8.00;1.00;;;;;;7362602;19;20049;-61
2022/04/09 11:37:48;;;;;;;9.90;3.88;;;7.30;1.00;;;;;;7364210;19;20090;-62
2022/04/09 11:40:19;;;;;;;8.93;3.80;;;8.50;1.00;;;;;;7384962;19;20055;-61
2022/04/09 11:42:53;;;;;;;9.20;3.47;;;8.80;1.00;;;;;;7355492;19;20070;-61
2022/04/09 11:45:27;;;;;;;6.97;3.70;;;8.90;1.00;;;;;;7363252;19;20042;-60
2022/04/09 11:48:00;;;;;;;9.40;3.65;;;9.00;1.00;;;;;;7364055;19;20010;-61
2022/04/09 11:50:33;;;;;;;7.25;3.63;;;8.90;1.00;;;;;;7362510;19;20066;-61
2022/04/09 11:53:11;;;;;;;9.00;3.53;;;8.80;1.00;;;;;;7358893;19;20010;-60
2022/04/09 11:55:41;;;;;;;6.88;3.30;;;8.70;1.00;;;;;;7362243;19;20025;-62
2022/04/09 11:58:14;;;;;;;9.30;3.13;;;9.20;1.00;;;;;;7385003;19;20094;-60
2022/04/09 12:00:47;;;;;;;5.43;3.35;;;8.50;1.00;;;;;;7360639;19;20010;-62
2022/04/09 12:03:18;;;;;;;8.65;2.72;;;8.30;1.00;;;;;;7360356;19;20366;-61
2022/04/09 12:05:51;;;;;;;8.20;2.80;;;8.00;1.00;;;;;;7361195;19;20018;-64
2022/04/09 12:08:29;;;;;;;7.43;3.28;;;7.80;1.00;;;;;;7364892;19;20011;-61
2022/04/09 12:11:04;;;;;;;5.85;2.67;;;8.20;1.00;;;;;;7360165;19;20486;-61
2022/04/09 12:13:35;;;;;;;;;;;8.10;1.00;;;;;;7383898;19;20375;-59
2022/04/09 12:16:19;;;;;;;5.13;2.20;;;7.40;1.00;;;;;;7364329;19;19944;-61
2022/04/09 12:18:50;;;;;;;11.20;2.50;;;8.00;1.00;;;;;;7362224;19;20015;-60
2022/04/09 12:21:22;;;;;;;6.45;2.33;;;8.70;1.00;;;;;;7357536;19;20008;-63
2022/04/09 12:24:02;;;;;;;5.55;2.80;;;8.60;1.00;;;;;;7358577;19;20022;-60
2022/04/09 12:26:33;;;;;;;9.70;2.80;;;8.40;1.00;;;;;;7364997;19;20470;-61
2022/04/09 12:29:11;;;;;;;6.80;3.03;;;9.20;1.00;;;;;;7363973;19;20014;-60
2022/04/09 12:31:47;;;;;;;5.95;2.10;;;8.80;1.00;;;;;;7354286;19;20010;-61
2022/04/09 12:34:18;;;;;;;4.45;1.85;;;8.40;1.00;;;;;;7378129;19;20042;-61
2022/04/09 12:37:04;;;;;;;7.28;2.30;;;8.80;1.00;;;;;;7362662;19;20014;-61
2022/04/09 12:39:36;;;;;;;5.88;2.88;;;8.80;1.00;;;;;;7362791;19;20459;-61
2022/04/09 12:42:07;;;;;;;8.93;2.30;;;8.70;1.00;;;;;;7354022;19;20081;-60
2022/04/09 12:44:39;;;;;;;6.68;2.55;;;9.30;1.00;;;;;;7359794;19;20081;-61
2022/04/09 12:47:12;;;;;;;6.13;2.10;;;9.30;1.00;;;;;;7361171;19;20014;-61
2022/04/09 12:49:42;;;;;;;6.03;2.65;;;8.90;1.00;;;;;;7360707;19;20021;-61
2022/04/09 12:52:12;;;;;;;7.13;2.83;;;9.30;1.00;;;;;;7374591;19;20022;-61
2022/04/09 12:54:42;;;;;;;5.38;2.70;;;9.20;1.00;;;;;;7358493;19;20378;-61
2022/04/09 12:57:14;;;;;;;5.22;2.47;;;9.00;1.00;;;;;;7361754;19;20010;-60
2022/04/09 12:59:45;;;;;;;6.32;2.58;;;9.50;1.00;;;;;;7361016;19;20014;-61
2022/04/09 13:02:18;;;;;;;5.47;2.15;;;8.70;1.00;;;;;;7353907;19;20014;-61
2022/04/09 13:04:48;;;;;;;4.47;2.25;;;8.60;1.00;;;;;;7360788;19;20085;-61
2022/04/09 13:07:18;;;;;;;5.93;2.30;;;9.20;1.00;;;;;;7382784;19;20021;-61
2022/04/09 13:09:49;;;;;;;3.70;1.95;;;9.70;1.00;;;;;;7360113;19;20011;-61
2022/04/09 13:12:18;;;;;;;5.80;2.13;;;9.40;1.00;;;;;;7351446;19;20070;-61
2022/04/09 13:14:48;;;;;;;10.30;3.25;;;9.10;1.00;;;;;;7358915;19;20104;-61
2022/04/09 13:17:21;;;;;;;7.07;2.40;;;8.80;1.00;;;;;;7360532;19;20013;-61